createdAt,value
2022-10-17T00:01:55.213Z,102906.31
2022-10-17T00:04:27.119Z,102904.06
2022-10-17T00:06:55.206Z,102901.06
2022-10-17T00:09:26.777Z,102898.16
2022-10-17T00:11:55.183Z,102905.03
2022-10-17T00:14:24.192Z,102900.44
2022-10-17T00:16:56.259Z,102902.00
2022-10-17T00:19:24.701Z,102909.53
2022-10-17T00:21:53.165Z,102912.09
2022-10-17T00:24:23.136Z,102908.47
2022-10-17T00:26:53.575Z,102916.34
2022-10-17T00:29:23.606Z,102913.38
2022-10-17T00:31:56.269Z,102926.00
2022-10-17T00:34:25.693Z,102923.22
2022-10-17T00:36:54.167Z,102930.94
2022-10-17T00:39:22.225Z,102930.69
2022-10-17T00:41:51.998Z,102937.97
2022-10-17T00:44:31.496Z,102932.84
2022-10-17T00:47:06.207Z,102942.69
2022-10-17T00:49:37.142Z,102942.44
2022-10-17T00:52:25.621Z,102942.34
2022-10-17T00:54:59.222Z,102941.56
2022-10-17T00:57:31.778Z,102940.72
2022-10-17T01:00:04.764Z,102940.88
2022-10-17T01:02:33.776Z,102942.88
2022-10-17T01:05:02.379Z,102943.00
2022-10-17T01:07:34.923Z,102944.41
2022-10-17T01:10:07.799Z,102945.25
2022-10-17T01:13:17.896Z,102942.34
2022-10-17T01:16:04.248Z,102944.16
2022-10-17T01:18:41.337Z,102951.47
2022-10-17T01:21:33.186Z,102955.22
2022-10-17T01:24:25.925Z,102959.34
2022-10-17T01:27:41.325Z,102959.78
2022-10-17T01:30:46.226Z,102962.84
2022-10-17T01:33:22.979Z,102967.00
2022-10-17T01:36:04.746Z,102966.53
2022-10-17T01:38:41.163Z,102972.19
2022-10-17T01:41:52.154Z,102972.94
2022-10-17T01:44:28.582Z,102967.59
2022-10-17T01:47:28.139Z,102977.00
2022-10-17T01:50:13.225Z,102974.56
2022-10-17T01:52:48.313Z,102973.59
2022-10-17T01:55:25.816Z,102976.38
2022-10-17T01:58:01.737Z,102979.72
2022-10-17T02:00:32.210Z,102974.47
2022-10-17T02:03:07.582Z,102982.78
2022-10-17T02:05:40.371Z,102981.00
2022-10-17T02:08:10.149Z,102987.28
2022-10-17T02:11:06.410Z,102986.72
2022-10-17T02:13:58.811Z,102989.88
2022-10-17T02:16:42.815Z,102992.28
2022-10-17T02:19:44.974Z,102995.81
2022-10-17T02:22:57.086Z,102989.31
2022-10-17T02:25:43.620Z,102979.59
2022-10-17T02:28:15.007Z,102971.56
2022-10-17T02:30:54.493Z,102983.81
2022-10-17T02:33:33.232Z,102982.34
2022-10-17T02:36:08.848Z,102981.31
2022-10-17T02:38:39.100Z,102985.34
2022-10-17T02:41:13.825Z,102975.50
2022-10-17T02:43:45.521Z,102978.47
2022-10-17T02:46:21.854Z,102974.66
2022-10-17T02:49:09.210Z,102971.13
2022-10-17T02:51:51.669Z,102968.25
2022-10-17T02:55:02.515Z,102970.53
2022-10-17T02:57:38.370Z,102974.84
2022-10-17T03:00:10.120Z,102973.88
2022-10-17T03:02:47.010Z,102969.31
2022-10-17T03:05:23.084Z,102975.59
2022-10-17T03:07:52.826Z,102979.50
2022-10-17T03:10:21.825Z,102977.09
2022-10-17T03:12:51.131Z,102983.53
2022-10-17T03:15:22.571Z,102987.44
2022-10-17T03:17:51.406Z,102979.59
2022-10-17T03:20:20.335Z,102978.84
2022-10-17T03:22:49.204Z,102980.56
2022-10-17T03:25:17.306Z,102991.63
2022-10-17T03:31:13.842Z,102995.63
2022-10-17T03:33:44.131Z,102998.00
2022-10-17T03:36:19.364Z,102995.03
2022-10-17T03:38:47.241Z,103010.50
2022-10-17T03:41:15.521Z,103006.03
2022-10-17T03:43:44.828Z,103011.81
2022-10-17T03:46:13.731Z,103010.94
2022-10-17T03:48:43.529Z,103011.72
2022-10-17T03:51:12.601Z,103009.44
2022-10-17T03:53:40.067Z,103013.91
2022-10-17T03:56:16.531Z,103011.53
2022-10-17T03:58:45.926Z,103008.53
2022-10-17T04:01:18.107Z,103006.44
2022-10-17T04:03:55.378Z,103003.97
2022-10-17T04:06:24.470Z,103007.56
2022-10-17T04:08:55.640Z,103009.13
2022-10-17T04:11:24.839Z,103004.16
2022-10-17T04:13:57.999Z,103010.47
2022-10-17T04:16:27.417Z,102998.25
2022-10-17T04:18:58.578Z,103001.00
2022-10-17T04:21:29.126Z,102999.00
2022-10-17T04:24:00.914Z,103007.22
2022-10-17T04:26:30.322Z,103015.81
2022-10-17T04:28:58.635Z,103018.41
2022-10-17T04:31:27.592Z,103025.16
2022-10-17T04:33:55.576Z,103025.63
2022-10-17T04:36:24.991Z,103030.38
2022-10-17T04:38:54.852Z,103033.66
2022-10-17T04:41:24.225Z,103039.63
2022-10-17T04:43:55.192Z,103037.19
2022-10-17T04:46:24.326Z,103043.28
2022-10-17T04:48:54.042Z,103046.34
2022-10-17T04:51:26.655Z,103045.13
2022-10-17T04:53:55.587Z,103040.91
2022-10-17T04:56:25.346Z,103044.81
2022-10-17T04:58:53.683Z,103044.63
2022-10-17T05:01:24.811Z,103049.88
2022-10-17T05:03:54.953Z,103056.25
2022-10-17T05:06:28.475Z,103062.28
2022-10-17T05:08:59.061Z,103067.56
2022-10-17T05:11:30.018Z,103070.72
2022-10-17T05:14:03.528Z,103073.84
2022-10-17T05:16:35.966Z,103071.09
2022-10-17T05:19:05.571Z,103076.34
2022-10-17T05:21:34.900Z,103071.94
2022-10-17T05:24:09.542Z,103076.25
2022-10-17T05:26:38.132Z,103075.00
2022-10-17T05:29:07.081Z,103081.94
2022-10-17T05:31:35.581Z,103082.41
2022-10-17T05:34:07.040Z,103093.59
2022-10-17T05:36:38.628Z,103081.44
2022-10-17T05:39:06.583Z,103080.25
2022-10-17T05:41:35.546Z,103080.50
2022-10-17T05:44:05.588Z,103081.09
2022-10-17T05:46:34.780Z,103095.47
2022-10-17T05:49:14.661Z,103097.22
2022-10-17T05:51:58.244Z,103088.41
2022-10-17T05:54:27.352Z,103088.44
2022-10-17T05:56:56.446Z,103090.38
2022-10-17T05:59:27.154Z,103092.97
2022-10-17T06:01:56.202Z,103093.63
2022-10-17T06:04:27.997Z,103096.72
2022-10-17T06:06:57.435Z,103102.84
2022-10-17T06:09:25.580Z,103106.66
2022-10-17T06:11:56.395Z,103102.78
2022-10-17T06:14:24.334Z,103102.44
2022-10-17T06:16:55.684Z,103104.66
2022-10-17T06:19:26.385Z,103109.59
2022-10-17T06:21:54.545Z,103117.47
2022-10-17T06:24:23.678Z,103108.34
2022-10-17T06:26:52.776Z,103111.34
2022-10-17T06:29:21.578Z,103112.34
2022-10-17T06:31:50.521Z,103117.59
2022-10-17T06:34:19.586Z,103117.94
2022-10-17T06:36:48.866Z,103112.94
2022-10-17T06:39:18.189Z,103119.81
2022-10-17T06:41:46.645Z,103108.38
2022-10-17T06:44:15.312Z,103109.59
2022-10-17T06:46:44.327Z,103099.59
2022-10-17T06:49:14.735Z,103098.78
2022-10-17T06:51:44.533Z,103108.44
2022-10-17T06:54:13.812Z,103108.69
2022-10-17T06:56:41.557Z,103116.50
2022-10-17T06:59:10.964Z,103113.56
2022-10-17T07:01:41.825Z,103118.47
2022-10-17T07:04:13.564Z,103116.84
2022-10-17T07:06:42.482Z,103117.97
2022-10-17T07:09:10.725Z,103116.44
2022-10-17T07:11:40.963Z,103127.47
2022-10-17T07:14:11.880Z,103120.13
2022-10-17T07:16:41.959Z,103120.31
2022-10-17T07:19:11.353Z,103113.63
2022-10-17T07:21:42.178Z,103111.38
2022-10-17T07:24:11.444Z,103119.28
2022-10-17T07:26:39.719Z,103123.19
2022-10-17T07:29:11.649Z,103117.59
2022-10-17T07:31:40.062Z,103126.28
2022-10-17T07:34:07.689Z,103126.63
2022-10-17T07:36:35.548Z,103124.06
2022-10-17T07:39:05.239Z,103127.66
2022-10-17T07:41:36.285Z,103118.50
2022-10-17T07:44:06.146Z,103118.00
2022-10-17T07:46:35.931Z,103118.88
2022-10-17T07:49:04.615Z,103118.69
2022-10-17T07:51:34.153Z,103123.81
2022-10-17T07:54:02.581Z,103123.53
2022-10-17T07:56:33.579Z,103125.28
2022-10-17T07:59:03.878Z,103123.56
2022-10-17T08:01:35.966Z,103122.56
2022-10-17T08:04:05.512Z,103132.13
2022-10-17T08:06:34.544Z,103128.09
2022-10-17T08:09:03.895Z,103118.00
2022-10-17T08:11:36.147Z,103120.19
2022-10-17T08:14:07.156Z,103123.69
2022-10-17T08:16:35.842Z,103126.09
2022-10-17T08:21:38.283Z,103123.41
2022-10-17T08:24:07.699Z,103118.69
2022-10-17T08:26:39.204Z,103114.75
2022-10-17T08:29:17.167Z,103114.75
2022-10-17T08:31:47.857Z,103104.72
2022-10-17T08:34:18.686Z,103109.41
2022-10-17T08:36:46.563Z,103097.56
2022-10-17T08:39:15.334Z,103102.47
2022-10-17T08:42:05.442Z,103099.38
2022-10-17T08:45:00.855Z,103102.56
2022-10-17T08:47:46.139Z,103105.47
2022-10-17T08:50:30.878Z,103112.91
2022-10-17T08:53:36.769Z,103106.00
2022-10-17T08:56:30.369Z,103098.22
2022-10-17T08:59:27.081Z,103109.63
2022-10-17T09:02:34.963Z,103106.06
2022-10-17T09:05:41.644Z,103108.16
2022-10-17T09:08:47.736Z,103105.50
2022-10-17T09:11:30.821Z,103102.19
2022-10-17T09:14:20.282Z,103106.59
2022-10-17T09:17:04.288Z,103105.44
2022-10-17T09:20:00.835Z,103102.84
2022-10-17T09:22:45.310Z,103104.38
2022-10-17T09:25:21.032Z,103096.78
2022-10-17T09:27:54.267Z,103082.44
2022-10-17T09:30:45.630Z,103081.16
2022-10-17T09:33:42.161Z,103076.72
2022-10-17T09:36:23.245Z,103079.75
2022-10-17T09:38:59.894Z,103072.38
2022-10-17T09:41:46.913Z,103069.16
2022-10-17T09:44:41.579Z,103064.25
2022-10-17T09:47:24.920Z,103060.53
2022-10-17T09:49:53.243Z,103061.22
2022-10-17T09:52:39.681Z,103056.44
2022-10-17T09:55:16.863Z,103063.91
2022-10-17T09:58:05.726Z,103059.16
2022-10-17T10:00:35.492Z,103054.22
2022-10-17T10:03:25.928Z,103053.69
2022-10-17T10:06:08.576Z,103061.00
2022-10-17T10:09:06.026Z,103058.78
2022-10-17T10:11:50.161Z,103048.94
2022-10-17T10:14:37.676Z,103039.47
2022-10-17T10:17:26.370Z,103030.03
2022-10-17T10:19:58.046Z,103035.25
2022-10-17T10:22:30.894Z,103025.28
2022-10-17T10:28:17.855Z,103015.97
2022-10-17T10:30:52.790Z,103017.38
2022-10-17T10:33:26.250Z,103018.03
2022-10-17T10:36:08.090Z,103017.28
2022-10-17T10:38:40.985Z,103013.34
2022-10-17T10:41:11.878Z,103021.50
2022-10-17T10:43:46.632Z,103010.78
2022-10-17T10:46:27.540Z,103012.03
2022-10-17T10:49:00.206Z,103008.13
2022-10-17T10:51:45.166Z,103006.75
2022-10-17T10:54:31.093Z,103008.56
2022-10-17T10:57:07.453Z,103010.81
2022-10-17T11:00:09.837Z,103006.94
2022-10-17T11:02:47.910Z,103017.66
2022-10-17T11:05:58.164Z,103018.19
2022-10-17T11:09:00.438Z,103021.34
2022-10-17T11:11:34.600Z,103019.31
2022-10-17T11:14:33.023Z,103021.81
2022-10-17T11:17:06.408Z,103019.38
2022-10-17T11:19:52.080Z,103019.13
2022-10-17T11:22:38.799Z,103024.44
2022-10-17T11:25:36.661Z,103016.56
2022-10-17T11:28:17.212Z,103020.16
2022-10-17T11:31:07.134Z,103023.66
2022-10-17T11:34:00.172Z,103028.66
2022-10-17T11:36:36.826Z,103027.63
2022-10-17T11:39:23.110Z,103034.97
2022-10-17T11:42:14.569Z,103038.34
2022-10-17T11:44:45.464Z,103034.78
2022-10-17T11:47:41.557Z,103033.72
2022-10-17T11:53:26.269Z,103020.81
2022-10-17T11:55:58.228Z,103016.41
2022-10-17T11:58:47.216Z,103016.31
2022-10-17T12:01:16.271Z,103020.81
2022-10-17T12:04:02.174Z,103001.78
2022-10-17T12:07:07.741Z,103001.78
2022-10-17T12:09:57.336Z,103002.56
2022-10-17T12:12:31.365Z,103005.34
2022-10-17T12:15:23.631Z,102996.56
2022-10-17T12:18:03.386Z,103009.59
2022-10-17T12:20:37.598Z,103005.56
2022-10-17T12:23:11.634Z,103008.97
2022-10-17T12:26:01.595Z,103009.31
2022-10-17T12:28:47.724Z,103004.44
2022-10-17T12:31:22.596Z,103004.28
2022-10-17T12:33:58.535Z,103015.00
2022-10-17T12:36:26.502Z,103014.63
2022-10-17T12:39:17.839Z,103020.28
2022-10-17T12:41:57.031Z,103029.19
2022-10-17T12:44:39.381Z,103012.88
2022-10-17T12:47:10.213Z,103020.63
2022-10-17T12:49:43.233Z,103021.09
2022-10-17T12:52:54.681Z,103017.22
2022-10-17T12:55:27.436Z,103024.66
2022-10-17T12:58:00.344Z,103031.44
2022-10-17T13:00:59.580Z,103032.88
2022-10-17T13:03:44.963Z,103032.94
2022-10-17T13:09:32.864Z,103036.50
2022-10-17T13:12:05.665Z,103037.59
2022-10-17T13:14:35.278Z,103040.97
2022-10-17T13:17:06.761Z,103042.53
2022-10-17T13:19:47.073Z,103040.06
2022-10-17T13:22:23.977Z,103031.56
2022-10-17T13:24:57.124Z,103029.25
2022-10-17T13:27:36.605Z,103031.94
2022-10-17T13:30:33.951Z,103021.25
2022-10-17T13:33:39.462Z,103027.56
2022-10-17T13:36:16.273Z,103025.19
2022-10-17T13:38:45.613Z,103023.81
2022-10-17T13:41:35.225Z,103023.91
2022-10-17T13:44:21.420Z,103012.13
2022-10-17T13:46:51.276Z,103013.34
2022-10-17T13:49:41.880Z,103004.72
2022-10-17T13:52:21.018Z,102996.09
2022-10-17T13:54:53.947Z,102997.34
2022-10-17T13:57:30.215Z,102995.28
2022-10-17T14:02:50.605Z,103004.91
2022-10-17T14:05:23.699Z,103005.00
2022-10-17T14:08:11.758Z,103010.16
2022-10-17T14:10:45.956Z,103005.44
2022-10-17T14:13:36.206Z,103000.00
2022-10-17T14:16:06.264Z,103008.50
2022-10-17T14:21:43.825Z,102995.44
2022-10-17T14:24:28.409Z,102999.00
2022-10-17T14:26:59.860Z,103002.50
2022-10-17T14:29:31.730Z,102991.03
2022-10-17T14:32:09.091Z,103000.69
2022-10-17T14:34:40.955Z,103000.78
2022-10-17T14:37:25.167Z,102993.56
2022-10-17T14:39:58.185Z,102991.41
2022-10-17T14:42:27.475Z,102985.19
2022-10-17T14:45:08.985Z,102980.47
2022-10-17T14:47:43.674Z,102979.19
2022-10-17T14:50:22.086Z,102976.81
2022-10-17T14:53:10.426Z,102975.66
2022-10-17T14:56:00.100Z,102973.72
2022-10-17T14:58:34.254Z,102975.84
2022-10-17T15:01:03.625Z,102982.47
2022-10-17T15:03:32.674Z,102991.63
2022-10-17T15:06:27.735Z,102999.22
2022-10-17T15:09:00.415Z,103012.53
2022-10-17T15:11:29.138Z,103010.25
2022-10-17T15:14:04.469Z,103010.81
2022-10-17T15:16:38.067Z,103021.81
2022-10-17T15:19:07.777Z,103019.97
2022-10-17T15:21:41.880Z,103023.81
2022-10-17T15:24:16.068Z,103031.78
2022-10-17T15:26:45.181Z,103042.47
2022-10-17T15:29:17.637Z,103041.91
2022-10-17T15:31:47.241Z,103053.00
2022-10-17T15:34:16.543Z,103057.97
2022-10-17T15:36:51.395Z,103062.97
2022-10-17T15:39:19.940Z,103058.84
2022-10-17T15:41:48.976Z,103058.41
2022-10-17T15:44:17.700Z,103061.53
2022-10-17T15:46:46.964Z,103060.66
2022-10-17T15:49:18.452Z,103063.34
2022-10-17T15:51:51.715Z,103068.75
2022-10-17T15:54:23.554Z,103065.00
2022-10-17T15:56:55.172Z,103060.59
2022-10-17T15:59:30.679Z,103060.22
2022-10-17T16:01:59.493Z,103067.31
2022-10-17T16:04:29.370Z,103055.34
2022-10-17T16:06:57.075Z,103064.13
2022-10-17T16:09:27.995Z,103054.59
2022-10-17T16:11:56.926Z,103056.41
2022-10-17T16:14:25.517Z,103055.47
2022-10-17T16:16:55.062Z,103055.91
2022-10-17T16:19:30.158Z,103047.72
2022-10-17T16:22:00.837Z,103048.81
2022-10-17T16:24:33.298Z,103045.13
2022-10-17T16:27:01.762Z,103057.88
2022-10-17T16:29:29.638Z,103058.59
2022-10-17T16:31:58.582Z,103058.13
2022-10-17T16:34:27.641Z,103055.75
2022-10-17T16:36:57.573Z,103049.53
2022-10-17T16:41:57.689Z,103061.03
2022-10-17T16:44:27.859Z,103061.59
2022-10-17T16:46:55.529Z,103057.44
2022-10-17T16:49:25.137Z,103052.56
2022-10-17T16:51:57.191Z,103051.94
2022-10-17T16:54:28.503Z,103058.44
2022-10-17T16:57:00.526Z,103067.00
2022-10-17T16:59:29.811Z,103056.03
2022-10-17T17:01:59.028Z,103066.06
2022-10-17T17:04:28.503Z,103076.34
2022-10-17T17:06:57.598Z,103065.81
2022-10-17T17:09:31.644Z,103060.22
2022-10-17T17:11:59.741Z,103055.44
2022-10-17T17:14:30.507Z,103054.88
2022-10-17T17:16:59.941Z,103053.53
2022-10-17T17:19:33.189Z,103033.00
2022-10-17T17:22:01.633Z,103033.34
2022-10-17T17:24:31.055Z,103031.16
2022-10-17T17:26:59.676Z,103034.13
2022-10-17T17:29:28.932Z,103037.53
2022-10-17T17:31:57.555Z,103048.53
2022-10-17T17:34:28.784Z,103043.63
2022-10-17T17:36:56.723Z,103051.19
2022-10-17T17:39:25.470Z,103055.38
2022-10-17T17:41:53.659Z,103052.56
2022-10-17T17:44:21.550Z,103069.31
2022-10-17T17:46:51.018Z,103069.78
2022-10-17T17:49:19.574Z,103066.13
2022-10-17T17:51:47.624Z,103064.66
2022-10-17T17:54:16.946Z,103065.91
2022-10-17T17:56:44.691Z,103071.50
2022-10-17T17:59:13.970Z,103075.53
2022-10-17T18:01:44.005Z,103080.78
2022-10-17T18:04:16.770Z,103071.25
2022-10-17T18:06:45.611Z,103075.91
2022-10-17T18:09:16.297Z,103068.94
2022-10-17T18:11:44.522Z,103068.13
2022-10-17T18:14:13.917Z,103070.47
2022-10-17T18:16:43.339Z,103072.28
2022-10-17T18:19:12.009Z,103072.28
2022-10-17T18:21:43.301Z,103069.81
2022-10-17T18:24:12.095Z,103071.88
2022-10-17T18:26:43.103Z,103071.72
2022-10-17T18:29:13.235Z,103071.63
2022-10-17T18:31:43.250Z,103069.16
2022-10-17T18:34:12.303Z,103070.00
2022-10-17T18:36:42.279Z,103086.97
2022-10-17T18:39:11.237Z,103085.38
2022-10-17T18:41:40.264Z,103086.56
2022-10-17T18:44:10.050Z,103079.34
2022-10-17T18:46:43.035Z,103085.91
2022-10-17T18:49:14.124Z,103082.34
2022-10-17T18:51:43.212Z,103079.06
2022-10-17T18:54:17.406Z,103079.94
2022-10-17T18:56:45.596Z,103079.47
2022-10-17T18:59:15.095Z,103083.13
2022-10-17T19:01:43.821Z,103086.78
2022-10-17T19:04:13.611Z,103085.06
2022-10-17T19:06:43.354Z,103083.78
2022-10-17T19:09:16.337Z,103087.22
2022-10-17T19:11:45.423Z,103088.13
2022-10-17T19:14:15.665Z,103094.25
2022-10-17T19:16:51.651Z,103087.69
2022-10-17T19:19:21.223Z,103087.59
2022-10-17T19:21:51.338Z,103083.44
2022-10-17T19:24:25.883Z,103082.47
2022-10-17T19:26:59.446Z,103088.38
2022-10-17T19:29:31.340Z,103094.59
2022-10-17T19:32:01.179Z,103095.78
2022-10-17T19:34:29.663Z,103096.75
2022-10-17T19:36:58.661Z,103097.63
2022-10-17T19:39:28.246Z,103101.03
2022-10-17T19:41:56.583Z,103098.19
2022-10-17T19:44:26.722Z,103099.69
2022-10-17T19:46:54.633Z,103095.19
2022-10-17T19:49:23.375Z,103098.72
2022-10-17T19:51:52.538Z,103088.41
2022-10-17T19:54:20.616Z,103087.88
2022-10-17T19:56:50.390Z,103088.84
2022-10-17T19:59:19.099Z,103096.88
2022-10-17T20:01:48.654Z,103085.41
2022-10-17T20:04:19.629Z,103092.75
2022-10-17T20:06:48.817Z,103097.56
2022-10-17T20:09:18.964Z,103095.31
2022-10-17T20:11:49.637Z,103095.31
2022-10-17T20:14:18.683Z,103089.19
2022-10-17T20:16:50.883Z,103095.75
2022-10-17T20:19:24.407Z,103100.88
2022-10-17T20:21:53.042Z,103094.03
2022-10-17T20:24:20.704Z,103095.75
2022-10-17T20:26:49.524Z,103094.56
2022-10-17T20:29:20.639Z,103089.31
2022-10-17T20:31:49.763Z,103085.88
2022-10-17T20:34:19.395Z,103086.88
2022-10-17T20:36:49.966Z,103077.00
2022-10-17T20:39:20.783Z,103082.47
2022-10-17T20:41:49.770Z,103082.22
2022-10-17T20:44:17.529Z,103082.69
2022-10-17T20:47:01.284Z,103077.97
2022-10-17T20:49:32.112Z,103075.06
2022-10-17T20:52:01.253Z,103071.31
2022-10-17T20:54:30.379Z,103077.00
2022-10-17T20:57:03.910Z,103073.13
2022-10-17T20:59:38.493Z,103071.53
2022-10-17T21:02:07.052Z,103072.38
2022-10-17T21:04:50.373Z,103076.22
2022-10-17T21:07:22.936Z,103075.94
2022-10-17T21:09:52.851Z,103070.25
2022-10-17T21:12:31.398Z,103071.88
2022-10-17T21:15:11.699Z,103068.19
2022-10-17T21:17:40.810Z,103068.31
2022-10-17T21:20:10.165Z,103073.66
2022-10-17T21:22:39.058Z,103068.84
2022-10-17T21:25:08.546Z,103062.53
2022-10-17T21:27:47.709Z,103053.09
2022-10-17T21:30:18.181Z,103064.75
2022-10-17T21:32:51.618Z,103055.09
2022-10-17T21:35:21.878Z,103058.22
2022-10-17T21:37:52.089Z,103057.75
2022-10-17T21:40:21.477Z,103047.78
2022-10-17T21:42:49.531Z,103041.31
2022-10-17T21:45:25.374Z,103049.41
2022-10-17T21:48:12.233Z,103052.19
2022-10-17T21:50:47.682Z,103061.81
2022-10-17T21:53:17.990Z,103060.97
2022-10-17T21:55:47.853Z,103053.22
2022-10-17T21:58:17.117Z,103048.09
2022-10-17T22:00:45.584Z,103059.00
2022-10-17T22:03:15.429Z,103042.84
2022-10-17T22:05:48.258Z,103047.22
2022-10-17T22:08:17.378Z,103051.53
2022-10-17T22:10:46.672Z,103057.06
2022-10-17T22:13:15.304Z,103048.84
2022-10-17T22:15:45.589Z,103048.09
2022-10-17T22:18:15.634Z,103050.56
2022-10-17T22:20:48.012Z,103050.56
2022-10-17T22:23:18.803Z,103048.09
2022-10-17T22:25:59.402Z,103052.47
2022-10-17T22:28:30.183Z,103041.25
2022-10-17T22:30:58.768Z,103044.03
2022-10-17T22:33:28.305Z,103046.91
2022-10-17T22:35:56.061Z,103047.84
2022-10-17T22:38:25.200Z,103047.84
2022-10-17T22:40:56.207Z,103041.28
2022-10-17T22:43:24.681Z,103043.75
2022-10-17T22:45:55.835Z,103045.16
2022-10-17T22:48:26.062Z,103046.97
2022-10-17T22:51:00.745Z,103055.09
2022-10-17T22:53:30.003Z,103044.41
2022-10-17T22:56:08.426Z,103052.44
2022-10-17T22:58:38.417Z,103056.56
2022-10-17T23:01:21.307Z,103052.28
2022-10-17T23:03:52.192Z,103047.34
2022-10-17T23:06:26.348Z,103058.03
2022-10-17T23:08:56.171Z,103053.53
2022-10-17T23:11:27.349Z,103059.00
2022-10-17T23:13:56.722Z,103059.09
2022-10-17T23:16:35.492Z,103051.59
2022-10-17T23:19:07.215Z,103056.31
2022-10-17T23:21:38.389Z,103053.25
2022-10-17T23:24:06.894Z,103049.53
2022-10-17T23:26:37.265Z,103053.59
2022-10-17T23:29:05.867Z,103049.56
2022-10-17T23:31:38.408Z,103054.91
2022-10-17T23:34:08.055Z,103052.31
2022-10-17T23:36:39.813Z,103062.38
2022-10-17T23:39:07.846Z,103059.13
2022-10-17T23:41:37.407Z,103051.47
2022-10-17T23:44:06.913Z,103051.28
2022-10-17T23:46:35.653Z,103068.59
2022-10-17T23:49:06.200Z,103070.50
2022-10-17T23:51:37.503Z,103065.81
2022-10-17T23:54:05.642Z,103060.41
2022-10-17T23:56:37.151Z,103064.50
2022-10-17T23:59:06.445Z,103056.34
